createdAt,value
2019-03-28T00:00:48.950Z,2.80
2019-03-28T00:03:18.610Z,3.00
2019-03-28T00:05:48.249Z,3.00
2019-03-28T00:08:17.894Z,3.00
2019-03-28T00:10:47.518Z,3.00
2019-03-28T00:13:17.164Z,3.10
2019-03-28T00:15:47.165Z,3.20
2019-03-28T00:18:16.800Z,3.30
2019-03-28T00:20:46.495Z,3.20
2019-03-28T00:23:36.214Z,3.40
2019-03-28T00:26:05.896Z,3.60
2019-03-28T00:28:35.542Z,3.60
2019-03-28T00:31:05.233Z,3.30
2019-03-28T00:33:34.886Z,3.40
2019-03-28T00:36:04.517Z,3.50
2019-03-28T00:38:34.305Z,3.50
2019-03-28T00:41:03.934Z,3.50
2019-03-28T00:43:33.578Z,3.60
2019-03-28T00:46:03.205Z,3.40
2019-03-28T00:48:32.857Z,3.40
2019-03-28T00:51:02.480Z,3.40
2019-03-28T00:53:32.124Z,3.60
2019-03-28T00:56:02.304Z,3.60
2019-03-28T00:58:32.096Z,3.50
2019-03-28T01:01:01.720Z,3.50
2019-03-28T01:03:31.373Z,3.60
2019-03-28T01:06:00.994Z,3.70
2019-03-28T01:08:30.645Z,3.50
2019-03-28T01:11:00.268Z,3.40
2019-03-28T01:13:29.913Z,3.50
2019-03-28T01:15:59.541Z,3.70
2019-03-28T01:18:29.189Z,3.80
2019-03-28T01:20:58.814Z,3.80
2019-03-28T01:23:28.434Z,3.70
2019-03-28T01:25:58.089Z,3.90
2019-03-28T01:28:27.704Z,3.60
2019-03-28T01:30:57.357Z,3.70
2019-03-28T01:33:26.985Z,3.90
2019-03-28T01:35:56.729Z,3.90
2019-03-28T01:38:26.366Z,3.70
2019-03-28T01:40:56.017Z,3.90
2019-03-28T01:43:25.639Z,3.80
2019-03-28T01:45:55.357Z,3.90
2019-03-28T01:48:24.972Z,3.90
2019-03-28T01:50:54.697Z,4.00
2019-03-28T01:53:24.317Z,3.90
2019-03-28T01:55:53.964Z,3.80
2019-03-28T01:58:23.589Z,3.90
2019-03-28T02:00:53.312Z,3.90
2019-03-28T02:03:22.932Z,3.90
2019-03-28T02:05:52.616Z,3.90
2019-03-28T02:08:24.783Z,3.90
2019-03-28T02:10:53.506Z,4.00
2019-03-28T02:13:23.124Z,4.00
2019-03-28T02:15:53.000Z,4.00
2019-03-28T02:18:22.620Z,4.10
2019-03-28T02:20:52.265Z,4.00
2019-03-28T02:23:21.885Z,3.90
2019-03-28T02:25:51.537Z,3.90
2019-03-28T02:28:21.153Z,4.20
2019-03-28T02:30:50.989Z,4.10
2019-03-28T02:33:20.621Z,4.20
2019-03-28T02:35:50.343Z,4.20
2019-03-28T02:38:19.973Z,3.90
2019-03-28T02:40:49.601Z,4.10
2019-03-28T02:43:19.914Z,4.50
2019-03-28T02:45:49.773Z,4.20
2019-03-28T02:48:19.404Z,4.30
2019-03-28T02:50:49.237Z,4.50
2019-03-28T02:53:18.857Z,4.50
2019-03-28T02:55:49.705Z,4.50
2019-03-28T02:58:19.629Z,4.50
2019-03-28T03:00:49.557Z,4.60
2019-03-28T03:03:19.189Z,4.80
2019-03-28T03:05:48.885Z,4.80
2019-03-28T03:08:18.512Z,4.90
2019-03-28T03:10:48.171Z,4.80
2019-03-28T03:13:17.798Z,4.70
2019-03-28T03:15:47.517Z,4.90
2019-03-28T03:18:21.178Z,4.60
2019-03-28T03:20:48.402Z,4.80
2019-03-28T03:23:18.117Z,4.90
2019-03-28T03:25:48.308Z,5.00
2019-03-28T03:28:17.930Z,4.90
2019-03-28T03:30:47.588Z,5.10
2019-03-28T03:33:17.273Z,5.20
2019-03-28T03:35:47.038Z,5.30
2019-03-28T03:38:16.662Z,5.00
2019-03-28T03:40:46.413Z,5.10
2019-03-28T03:43:16.032Z,5.20
2019-03-28T03:45:45.770Z,5.10
2019-03-28T03:48:15.398Z,4.80
2019-03-28T03:50:45.044Z,4.80
2019-03-28T03:53:14.660Z,4.80
2019-03-28T03:55:44.309Z,4.70
2019-03-28T03:58:16.620Z,4.40
2019-03-28T04:00:45.201Z,4.40
2019-03-28T04:03:14.820Z,4.60
2019-03-28T04:05:44.471Z,4.70
2019-03-28T04:08:14.093Z,4.40
2019-03-28T04:10:43.732Z,4.40
2019-03-28T04:13:13.350Z,4.60
2019-03-28T04:15:44.114Z,4.80
2019-03-28T04:18:13.876Z,4.70
2019-03-28T04:20:43.784Z,4.60
2019-03-28T04:23:13.425Z,4.50
2019-03-28T04:25:43.121Z,4.40
2019-03-28T04:28:12.947Z,4.50
2019-03-28T04:30:42.707Z,4.30
2019-03-28T04:33:12.346Z,4.40
2019-03-28T04:35:42.060Z,4.10
2019-03-28T04:38:11.702Z,4.20
2019-03-28T04:40:41.325Z,4.20
2019-03-28T04:43:10.978Z,4.10
2019-03-28T04:45:40.605Z,4.20
2019-03-28T04:48:10.238Z,4.20
2019-03-28T04:50:39.868Z,3.80
2019-03-28T04:53:09.521Z,3.50
2019-03-28T04:55:39.325Z,3.70
2019-03-28T04:58:08.974Z,3.60
2019-03-28T05:00:38.604Z,3.60
2019-03-28T05:03:08.248Z,3.60
2019-03-28T05:05:37.872Z,4.10
2019-03-28T05:08:08.377Z,4.30
2019-03-28T05:10:38.156Z,4.40
2019-03-28T05:13:07.805Z,4.50
2019-03-28T05:15:37.426Z,4.60
2019-03-28T05:18:07.068Z,4.40
2019-03-28T05:20:36.688Z,4.60
2019-03-28T05:23:06.815Z,4.70
2019-03-28T05:25:37.763Z,4.60
2019-03-28T05:28:07.504Z,4.10
2019-03-28T05:30:37.132Z,4.20
2019-03-28T05:33:06.777Z,3.70
2019-03-28T05:35:36.404Z,3.80
2019-03-28T05:38:06.044Z,3.80
2019-03-28T05:40:36.490Z,4.00
2019-03-28T05:43:06.420Z,3.80
2019-03-28T05:45:36.072Z,3.70
2019-03-28T05:48:19.690Z,4.10
2019-03-28T05:50:49.491Z,4.20
2019-03-28T05:53:19.133Z,4.40
2019-03-28T05:55:48.912Z,4.20
2019-03-28T05:58:18.562Z,4.00
2019-03-28T06:00:51.155Z,4.30
2019-03-28T06:03:19.448Z,4.60
2019-03-28T06:05:49.072Z,4.80
2019-03-28T06:08:18.721Z,4.90
2019-03-28T06:10:48.340Z,5.20
2019-03-28T06:13:17.988Z,5.40
2019-03-28T06:15:47.615Z,5.60
2019-03-28T06:18:17.273Z,5.70
2019-03-28T06:20:46.901Z,5.80
2019-03-28T06:23:16.565Z,5.90
2019-03-28T06:25:46.263Z,6.10
2019-03-28T06:28:15.913Z,6.30
2019-03-28T06:30:45.855Z,6.40
2019-03-28T06:33:15.448Z,6.30
2019-03-28T06:35:45.551Z,6.40
2019-03-28T06:38:15.724Z,6.50
2019-03-28T06:40:45.895Z,6.30
2019-03-28T06:43:17.665Z,6.40
2019-03-28T06:45:47.677Z,6.50
2019-03-28T06:48:17.784Z,6.60
2019-03-28T06:50:48.076Z,6.70
2019-03-28T06:53:18.159Z,6.80
2019-03-28T06:55:48.475Z,6.90
2019-03-28T06:58:18.272Z,7.00
2019-03-28T07:00:48.275Z,7.30
2019-03-28T07:03:17.887Z,7.60
2019-03-28T07:05:49.860Z,8.00
2019-03-28T07:08:20.081Z,8.10
2019-03-28T07:10:50.388Z,8.30
2019-03-28T07:13:21.329Z,8.60
2019-03-28T07:15:51.164Z,8.90
2019-03-28T07:18:22.178Z,9.20
2019-03-28T07:20:52.452Z,9.20
2019-03-28T07:23:22.329Z,9.40
2019-03-28T07:25:52.144Z,9.40
2019-03-28T07:28:22.921Z,9.70
2019-03-28T07:30:52.665Z,10.30
2019-03-28T07:33:22.361Z,10.50
2019-03-28T07:35:52.040Z,10.40
2019-03-28T07:38:21.664Z,10.20
2019-03-28T07:40:51.318Z,10.20
2019-03-28T07:43:20.937Z,10.50
2019-03-28T07:45:50.667Z,10.70
2019-03-28T07:48:20.487Z,10.90
2019-03-28T07:50:50.250Z,11.10
2019-03-28T07:53:20.132Z,11.00
2019-03-28T07:55:50.786Z,11.00
2019-03-28T07:58:20.396Z,11.10
2019-03-28T08:00:50.049Z,11.10
2019-03-28T08:03:19.677Z,11.30
2019-03-28T08:05:49.328Z,11.30
2019-03-28T08:08:19.031Z,11.50
2019-03-28T08:10:48.668Z,11.40
2019-03-28T08:13:18.296Z,11.50
2019-03-28T08:15:47.949Z,11.70
2019-03-28T08:18:17.580Z,12.00
2019-03-28T08:20:47.232Z,12.30
2019-03-28T08:23:17.032Z,12.30
2019-03-28T08:25:46.685Z,12.80
2019-03-28T08:28:16.316Z,12.60
2019-03-28T08:30:45.970Z,12.60
2019-03-28T08:33:15.660Z,12.50
2019-03-28T08:35:45.448Z,12.60
2019-03-28T08:38:15.514Z,12.90
2019-03-28T08:40:45.626Z,12.60
2019-03-28T08:43:15.248Z,13.30
2019-03-28T08:45:44.977Z,13.10
2019-03-28T08:48:14.601Z,13.10
2019-03-28T08:50:44.257Z,12.80
2019-03-28T08:53:13.880Z,12.70
2019-03-28T08:55:43.682Z,12.90
2019-03-28T08:58:13.379Z,13.10
2019-03-28T09:00:51.623Z,13.60
2019-03-28T09:03:14.678Z,13.90
2019-03-28T09:05:44.335Z,13.90
2019-03-28T09:08:13.964Z,13.90
2019-03-28T09:10:43.621Z,14.00
2019-03-28T09:13:13.648Z,14.40
2019-03-28T09:15:44.296Z,14.70
2019-03-28T09:18:13.996Z,15.00
2019-03-28T09:20:43.638Z,14.10
2019-03-28T09:23:13.284Z,14.60
2019-03-28T09:25:42.920Z,14.60
2019-03-28T09:28:12.543Z,14.30
2019-03-28T09:30:48.605Z,14.70
2019-03-28T09:33:15.977Z,15.10
2019-03-28T09:35:46.250Z,15.20
2019-03-28T09:38:16.172Z,14.90
2019-03-28T09:40:45.961Z,14.90
2019-03-28T09:43:15.585Z,15.50
2019-03-28T09:45:45.243Z,15.30
2019-03-28T09:48:16.197Z,15.10
2019-03-28T09:50:45.947Z,15.00
2019-03-28T09:53:15.979Z,14.70
2019-03-28T09:55:45.797Z,14.90
2019-03-28T10:01:06.181Z,15.30
2019-03-28T10:03:35.819Z,15.70
2019-03-28T10:06:06.646Z,15.90
2019-03-28T10:08:36.413Z,15.50
2019-03-28T10:11:06.076Z,15.70
2019-03-28T10:13:36.481Z,16.70
2019-03-28T10:16:06.289Z,15.50
2019-03-28T10:18:36.011Z,15.80
2019-03-28T10:21:05.657Z,15.50
2019-03-28T10:23:35.301Z,15.00
2019-03-28T10:26:05.308Z,15.00
2019-03-28T10:28:34.921Z,15.40
2019-03-28T10:31:15.912Z,15.50
2019-03-28T10:33:36.103Z,15.50
2019-03-28T10:36:05.958Z,15.50
2019-03-28T10:38:35.688Z,16.00
2019-03-28T10:41:05.387Z,16.50
2019-03-28T10:43:35.044Z,15.80
2019-03-28T10:46:04.917Z,15.80
2019-03-28T10:48:34.672Z,16.00
2019-03-28T10:51:04.578Z,16.50
2019-03-28T10:53:34.796Z,16.40
2019-03-28T10:56:04.794Z,16.20
2019-03-28T10:58:35.190Z,16.70
2019-03-28T11:01:06.074Z,16.50
2019-03-28T11:03:35.813Z,16.60
2019-03-28T11:06:06.530Z,16.40
2019-03-28T11:08:36.837Z,17.00
2019-03-28T11:11:07.457Z,17.10
2019-03-28T11:13:37.317Z,17.00
2019-03-28T11:16:07.387Z,16.60
2019-03-28T11:18:37.511Z,16.60
2019-03-28T11:21:07.837Z,16.50
2019-03-28T11:23:37.596Z,15.80
2019-03-28T11:26:07.586Z,15.80
2019-03-28T11:28:42.830Z,16.40
2019-03-28T11:31:12.914Z,16.60
2019-03-28T11:33:42.818Z,16.80
2019-03-28T11:36:13.176Z,16.60
2019-03-28T11:38:43.033Z,17.10
2019-03-28T11:41:12.692Z,17.20
2019-03-28T11:43:42.389Z,17.40
2019-03-28T11:46:12.633Z,17.20
2019-03-28T11:48:42.329Z,17.50
2019-03-28T11:51:11.980Z,17.40
2019-03-28T11:53:42.542Z,16.90
2019-03-28T11:56:14.514Z,17.20
2019-03-28T11:58:45.236Z,17.70
2019-03-28T12:01:16.097Z,17.70
2019-03-28T12:03:46.556Z,17.10
2019-03-28T12:06:17.842Z,17.90
2019-03-28T12:08:49.068Z,17.40
2019-03-28T12:11:18.877Z,17.90
2019-03-28T12:13:48.701Z,17.90
2019-03-28T12:16:18.360Z,18.40
2019-03-28T12:18:48.441Z,17.60
2019-03-28T12:21:18.763Z,18.10
2019-03-28T12:23:50.595Z,18.00
2019-03-28T12:29:17.661Z,17.30
2019-03-28T12:31:47.628Z,17.40
2019-03-28T12:34:17.307Z,17.60
2019-03-28T12:36:46.972Z,17.40
2019-03-28T12:39:17.072Z,17.40
2019-03-28T12:41:46.732Z,17.80
2019-03-28T12:44:16.412Z,17.70
2019-03-28T12:46:46.148Z,17.60
2019-03-28T12:49:15.835Z,18.10
2019-03-28T12:51:45.560Z,18.80
2019-03-28T12:54:15.398Z,19.40
2019-03-28T12:56:44.997Z,19.10
2019-03-28T12:59:14.809Z,19.20
2019-03-28T13:01:44.555Z,18.50
2019-03-28T13:04:14.303Z,18.90
2019-03-28T13:06:44.060Z,19.50
2019-03-28T13:09:13.739Z,19.10
2019-03-28T13:11:43.396Z,19.30
2019-03-28T13:14:13.076Z,18.90
2019-03-28T13:16:42.819Z,18.80
2019-03-28T13:19:12.498Z,19.50
2019-03-28T13:21:42.216Z,19.70
2019-03-28T13:24:11.970Z,19.00
2019-03-28T13:26:41.640Z,18.50
2019-03-28T13:29:11.397Z,18.30
2019-03-28T13:31:41.188Z,18.90
2019-03-28T13:34:10.871Z,19.50
2019-03-28T13:36:40.587Z,19.00
2019-03-28T13:39:10.298Z,19.10
2019-03-28T13:41:39.941Z,18.70
2019-03-28T13:44:12.139Z,19.10
2019-03-28T13:46:41.817Z,19.20
2019-03-28T13:49:11.652Z,18.80
2019-03-28T13:51:42.488Z,19.00
2019-03-28T13:54:12.240Z,19.60
2019-03-28T13:56:43.857Z,19.40
2019-03-28T13:59:13.253Z,19.60
2019-03-28T14:01:42.928Z,18.90
2019-03-28T14:04:12.613Z,18.90
2019-03-28T14:06:42.281Z,18.10
2019-03-28T14:09:12.029Z,18.30
2019-03-28T14:11:41.756Z,18.60
2019-03-28T14:14:11.581Z,17.70
2019-03-28T14:16:41.258Z,16.30
2019-03-28T14:19:11.125Z,17.20
2019-03-28T14:21:40.784Z,17.50
2019-03-28T14:24:11.881Z,17.20
2019-03-28T14:26:41.688Z,17.30
2019-03-28T14:29:11.408Z,18.00
2019-03-28T14:31:41.083Z,18.10
2019-03-28T14:34:10.764Z,17.70
2019-03-28T14:36:42.340Z,17.60
2019-03-28T14:39:12.025Z,17.20
2019-03-28T14:41:41.688Z,17.40
2019-03-28T14:44:11.350Z,17.10
2019-03-28T14:46:41.162Z,16.80
2019-03-28T14:49:11.428Z,16.70
2019-03-28T14:51:41.678Z,16.50
2019-03-28T14:54:11.564Z,17.20
2019-03-28T14:56:42.179Z,17.50
2019-03-28T14:59:13.076Z,17.30
2019-03-28T15:01:42.760Z,17.40
2019-03-28T15:04:12.420Z,16.40
2019-03-28T15:06:42.217Z,16.40
2019-03-28T15:09:11.876Z,16.40
2019-03-28T15:11:41.560Z,16.60
2019-03-28T15:14:11.220Z,16.70
2019-03-28T15:16:40.965Z,16.60
2019-03-28T15:19:10.692Z,16.30
2019-03-28T15:21:41.030Z,16.80
2019-03-28T15:24:10.801Z,16.60
2019-03-28T15:26:40.784Z,16.70
2019-03-28T15:29:10.518Z,16.40
2019-03-28T15:31:40.283Z,16.00
2019-03-28T15:34:09.963Z,16.60
2019-03-28T15:36:42.129Z,16.70
2019-03-28T15:39:12.040Z,16.40
2019-03-28T15:41:41.777Z,16.30
2019-03-28T15:44:11.464Z,16.00
2019-03-28T15:46:41.954Z,15.90
2019-03-28T15:49:11.617Z,16.00
2019-03-28T15:51:41.295Z,16.20
2019-03-28T15:54:10.998Z,15.50
2019-03-28T15:56:40.810Z,15.60
2019-03-28T15:59:11.999Z,15.60
2019-03-28T16:01:41.684Z,15.70
2019-03-28T16:04:11.344Z,15.60
2019-03-28T16:06:41.564Z,15.20
2019-03-28T16:09:11.529Z,14.90
2019-03-28T16:11:41.257Z,15.00
2019-03-28T16:14:10.924Z,14.90
2019-03-28T16:16:40.740Z,15.10
2019-03-28T16:19:10.416Z,15.00
2019-03-28T16:21:40.110Z,14.90
2019-03-28T16:24:10.113Z,14.90
2019-03-28T16:26:39.887Z,14.80
2019-03-28T16:29:09.544Z,15.10
2019-03-28T16:31:39.299Z,14.90
2019-03-28T16:34:09.032Z,14.70
2019-03-28T16:36:38.976Z,14.90
2019-03-28T16:39:08.858Z,15.20
2019-03-28T16:41:39.084Z,15.70
2019-03-28T16:44:08.884Z,15.50
2019-03-28T16:46:38.661Z,15.90
2019-03-28T16:49:10.105Z,15.70
2019-03-28T16:51:59.133Z,15.40
2019-03-28T16:54:28.918Z,15.00
2019-03-28T16:56:59.004Z,14.90
2019-03-28T16:59:28.656Z,14.80
2019-03-28T17:01:58.522Z,15.10
2019-03-28T17:04:28.671Z,15.10
2019-03-28T17:06:59.640Z,15.10
2019-03-28T17:09:30.309Z,15.20
2019-03-28T17:12:00.076Z,15.10
2019-03-28T17:14:29.867Z,14.50
2019-03-28T17:17:01.009Z,14.30
2019-03-28T17:19:32.282Z,14.20
2019-03-28T17:22:01.973Z,14.00
2019-03-28T17:24:32.077Z,14.00
2019-03-28T17:27:01.861Z,13.60
2019-03-28T17:29:31.512Z,13.40
2019-03-28T17:32:01.201Z,13.50
2019-03-28T17:34:35.224Z,13.60
2019-03-28T17:37:06.044Z,13.40
2019-03-28T17:39:37.043Z,13.30
2019-03-28T17:42:08.438Z,13.20
2019-03-28T17:44:38.554Z,13.20
2019-03-28T17:47:10.748Z,13.10
2019-03-28T17:49:40.623Z,12.90
2019-03-28T17:52:10.291Z,12.90
2019-03-28T17:54:40.930Z,12.80
2019-03-28T17:57:10.715Z,12.80
2019-03-28T17:59:40.435Z,12.90
2019-03-28T18:02:10.122Z,12.70
2019-03-28T18:04:47.820Z,12.70
2019-03-28T18:07:11.146Z,12.70
2019-03-28T18:09:40.741Z,12.60
2019-03-28T18:12:10.419Z,12.40
2019-03-28T18:14:40.226Z,12.50
2019-03-28T18:17:09.916Z,12.60
2019-03-28T18:19:39.747Z,12.40
2019-03-28T18:22:09.441Z,12.40
2019-03-28T18:24:39.096Z,12.30
2019-03-28T18:27:08.787Z,12.30
2019-03-28T18:29:38.455Z,12.20
2019-03-28T18:32:08.140Z,12.20
2019-03-28T18:34:37.898Z,12.10
2019-03-28T18:37:07.644Z,12.10
2019-03-28T18:39:37.302Z,12.20
2019-03-28T18:42:07.034Z,12.00
2019-03-28T18:44:36.699Z,12.00
2019-03-28T18:47:06.390Z,12.10
2019-03-28T18:49:36.041Z,11.90
2019-03-28T18:52:07.505Z,12.00
2019-03-28T18:54:37.499Z,11.80
2019-03-28T18:57:07.349Z,11.70
2019-03-28T18:59:37.015Z,11.70
2019-03-28T19:02:06.839Z,11.60
2019-03-28T19:04:36.901Z,11.70
2019-03-28T19:07:06.543Z,11.70
2019-03-28T19:09:36.216Z,11.60
2019-03-28T19:12:05.864Z,11.70
2019-03-28T19:14:35.707Z,11.70
2019-03-28T19:17:07.154Z,11.80
2019-03-28T19:19:39.615Z,11.70
2019-03-28T19:22:08.088Z,11.70
2019-03-28T19:24:37.897Z,11.50
2019-03-28T19:27:07.532Z,11.50
2019-03-28T19:29:37.284Z,11.50
2019-03-28T19:32:06.934Z,11.50
2019-03-28T19:34:36.635Z,11.40
2019-03-28T19:37:06.455Z,11.50
2019-03-28T19:39:36.711Z,11.50
2019-03-28T19:42:06.664Z,11.50
2019-03-28T19:44:37.124Z,11.50
2019-03-28T19:47:06.783Z,11.50
2019-03-28T19:49:36.467Z,11.50
2019-03-28T19:52:06.135Z,11.40
2019-03-28T19:54:35.981Z,11.50
2019-03-28T19:57:05.965Z,11.40
2019-03-28T19:59:35.652Z,11.30
2019-03-28T20:02:05.451Z,11.30
2019-03-28T20:04:35.196Z,11.30
2019-03-28T20:07:04.924Z,11.20
2019-03-28T20:09:34.613Z,11.30
2019-03-28T20:12:05.381Z,11.20
2019-03-28T20:14:35.330Z,11.10
2019-03-28T20:17:05.045Z,11.10
2019-03-28T20:19:34.725Z,11.00
2019-03-28T20:22:04.677Z,11.00
2019-03-28T20:24:34.711Z,10.90
2019-03-28T20:27:04.607Z,10.90
2019-03-28T20:29:35.093Z,10.90
2019-03-28T20:32:08.077Z,10.90
2019-03-28T20:34:36.433Z,10.90
2019-03-28T20:37:06.076Z,10.90
2019-03-28T20:39:35.760Z,10.90
2019-03-28T20:42:05.420Z,10.90
2019-03-28T20:44:35.106Z,10.80
2019-03-28T20:47:04.900Z,10.80
2019-03-28T20:49:34.971Z,10.70
2019-03-28T20:52:04.875Z,10.70
2019-03-28T20:54:34.568Z,10.70
2019-03-28T20:57:04.565Z,10.70
2019-03-28T20:59:34.252Z,10.70
2019-03-28T21:02:04.072Z,10.70
2019-03-28T21:04:34.400Z,10.60
2019-03-28T21:07:04.460Z,10.50
2019-03-28T21:09:34.313Z,10.50
2019-03-28T21:12:04.141Z,10.50
2019-03-28T21:14:33.972Z,10.50
2019-03-28T21:17:05.027Z,10.50
2019-03-28T21:19:34.911Z,10.50
2019-03-28T21:22:05.961Z,10.50
2019-03-28T21:24:36.079Z,10.50
2019-03-28T21:27:06.909Z,10.50
2019-03-28T21:29:48.250Z,10.40
2019-03-28T21:32:08.052Z,10.40
2019-03-28T21:34:37.729Z,10.40
2019-03-28T21:37:07.368Z,10.30
2019-03-28T21:39:39.891Z,10.30
2019-03-28T21:42:08.327Z,10.30
2019-03-28T21:44:38.025Z,10.30
2019-03-28T21:47:07.644Z,10.30
2019-03-28T21:49:37.362Z,10.20
2019-03-28T21:52:07.630Z,10.20
2019-03-28T21:54:37.788Z,10.10
2019-03-28T21:57:07.415Z,10.00
2019-03-28T21:59:37.056Z,10.00
2019-03-28T22:02:06.845Z,10.10
2019-03-28T22:04:36.513Z,10.10
2019-03-28T22:07:06.116Z,10.00
2019-03-28T22:09:35.768Z,9.90
2019-03-28T22:12:05.676Z,10.00
2019-03-28T22:14:35.334Z,10.00
2019-03-28T22:17:05.048Z,10.00
2019-03-28T22:19:34.681Z,9.90
2019-03-28T22:22:04.489Z,9.90
2019-03-28T22:24:34.162Z,10.00
2019-03-28T22:27:03.807Z,9.80
2019-03-28T22:29:33.432Z,9.90
2019-03-28T22:32:03.084Z,9.90
2019-03-28T22:34:33.974Z,9.90
2019-03-28T22:37:03.849Z,9.80
2019-03-28T22:39:33.469Z,9.80
2019-03-28T22:42:03.120Z,9.80
2019-03-28T22:44:34.037Z,9.80
2019-03-28T22:47:03.896Z,9.80
2019-03-28T22:49:33.514Z,9.70
2019-03-28T22:52:03.153Z,9.70
2019-03-28T22:54:32.774Z,9.80
2019-03-28T22:57:02.412Z,9.70
2019-03-28T22:59:32.942Z,9.70
2019-03-28T23:02:02.955Z,9.60
2019-03-28T23:04:32.971Z,9.60
2019-03-28T23:07:10.712Z,9.70
2019-03-28T23:09:33.852Z,9.70
2019-03-28T23:12:03.500Z,9.60
2019-03-28T23:14:33.152Z,9.50
2019-03-28T23:17:02.852Z,9.50
2019-03-28T23:19:32.477Z,9.40
2019-03-28T23:22:02.188Z,9.50
2019-03-28T23:24:31.942Z,9.50
2019-03-28T23:27:01.618Z,9.40
2019-03-28T23:29:31.236Z,9.30
2019-03-28T23:32:00.880Z,9.30
2019-03-28T23:34:30.500Z,9.30
2019-03-28T23:37:00.149Z,9.40
2019-03-28T23:39:29.771Z,9.30
2019-03-28T23:41:59.417Z,9.30
2019-03-28T23:44:29.144Z,9.30
2019-03-28T23:46:58.785Z,9.30
2019-03-28T23:49:28.418Z,9.30
2019-03-28T23:51:58.061Z,9.20
2019-03-28T23:54:27.672Z,9.30
2019-03-28T23:56:57.330Z,9.30
2019-03-28T23:59:26.948Z,9.20
